Thailine 5 — 9WFF5 — position and weather

sailwx.info

Track history (hours):
 
Tides and Currents Weather Stations Pressure Air Temp Water Temp Dewpoint Dewpoint Depression Visibility Wind Speed Wind Dir Waves Ship Positions

Thailine 5

Last reported at 2015-Mar-25 16:33 UTC. Time now 2015-Mar-27 19:16 UTC.
Position N 33°43' E 129°57'.

Length 98 m; draft 5.1 m.

Type: Cargo ship. MMSI: 533399000.

Date/timePositionNaut miles runAvg speedWind from/ knotsBaromVisibWave heightAir tempDewpointWater temp
2015-Mar-25 16:33N 33°43' E 129°57'1211.2
2015-Mar-25 15:31N 33°48' E 130°09'1311.5
2015-Mar-25 14:22N 33°56' E 130°23'  
2015-Mar-23 09:25N 34°36' E 134°55'7 7.8
2015-Mar-23 08:33N 34°36' E 135°03'8 8.0
2015-Mar-23 07:33N 34°34' E 135°12'9 9.2
2015-Mar-23 06:33N 34°31' E 135°23'0 0.1
2015-Mar-23 05:11N 34°31' E 135°23'0 0.0
2015-Mar-23 04:23N 34°31' E 135°23'0 0.0
2015-Mar-23 03:11N 34°31' E 135°23'0 0.0
2015-Mar-23 01:23N 34°31' E 135°23'0 0.0
2015-Mar-23 00:11N 34°31' E 135°23'0 0.0
2015-Mar-22 23:23N 34°31' E 135°23'0 0.0
2015-Mar-22 22:17N 34°31' E 135°23'0 0.0
2015-Mar-22 21:23N 34°31' E 135°23'0 0.0
2015-Mar-22 20:29N 34°31' E 135°23'0 0.0
2015-Mar-22 19:23N 34°31' E 135°23'0 0.0
2015-Mar-22 18:29N 34°31' E 135°23'0 0.0
2015-Mar-22 17:29N 34°31' E 135°23'0 0.0
2015-Mar-22 16:29N 34°31' E 135°23'0 0.0
2015-Mar-22 15:29N 34°31' E 135°23'0 0.0
2015-Mar-22 14:05N 34°31' E 135°23'0 0.0
2015-Mar-22 13:23N 34°31' E 135°23'0 0.0
2015-Mar-22 12:17N 34°31' E 135°23'0 0.1
2015-Mar-22 11:29N 34°31' E 135°23'0 0.0
2015-Mar-22 10:17N 34°31' E 135°23'0 0.0
2015-Mar-22 09:29N 34°31' E 135°23'0 0.0
2015-Mar-22 06:11N 34°31' E 135°23'0 0.0
2015-Mar-22 05:11N 34°31' E 135°23'0 0.0
2015-Mar-22 04:23N 34°31' E 135°23'0 0.0
2015-Mar-22 03:29N 34°31' E 135°23'0 0.0
2015-Mar-22 02:23N 34°31' E 135°23'0 0.0
2015-Mar-22 01:23N 34°31' E 135°23'0 0.0
2015-Mar-22 00:29N 34°31' E 135°23'0 0.0
2015-Mar-21 23:29N 34°31' E 135°23'0 0.0
2015-Mar-21 22:23N 34°31' E 135°23'0 0.0
2015-Mar-21 21:17N 34°31' E 135°23'0 0.0
2015-Mar-21 20:11N 34°31' E 135°23'0 0.0
2015-Mar-21 19:29N 34°31' E 135°23'0 0.0
2015-Mar-21 18:23N 34°31' E 135°23'0 0.0
2015-Mar-21 17:05N 34°31' E 135°23'0 0.0
2015-Mar-21 16:29N 34°31' E 135°23'0 0.0
2015-Mar-21 14:17N 34°31' E 135°23'0 0.0
2015-Mar-21 13:23N 34°31' E 135°23'0 0.0
2015-Mar-21 12:23N 34°31' E 135°23'0 0.0
2015-Mar-21 11:29N 34°31' E 135°23'0 0.0
2015-Mar-21 10:23N 34°31' E 135°23'0 0.0
2015-Mar-21 09:17N 34°31' E 135°23'0 0.0
2015-Mar-21 08:29N 34°31' E 135°23'0 0.0
2015-Mar-21 07:23N 34°31' E 135°23'0 0.0
2015-Mar-21 06:11N 34°31' E 135°23'0 0.0
2015-Mar-21 04:23N 34°31' E 135°23'0 0.0
2015-Mar-21 02:23N 34°31' E 135°23'0 0.4
2015-Mar-21 01:33N 34°32' E 135°23'2 1.6
2015-Mar-21 00:24N 34°32' E 135°21'0 0.0
2015-Mar-20 23:18N 34°32' E 135°21'0 0.0
2015-Mar-20 22:18N 34°32' E 135°21'0 0.0
2015-Mar-20 21:24N 34°32' E 135°21'0 0.0
2015-Mar-20 20:06N 34°32' E 135°21'0 0.0
2015-Mar-20 18:30N 34°32' E 135°21'0 0.0
2015-Mar-20 17:06N 34°32' E 135°21'0 0.0
2015-Mar-20 16:24N 34°32' E 135°21'0 0.0
2015-Mar-20 15:30N 34°32' E 135°21'0 0.0
2015-Mar-20 14:24N 34°32' E 135°21'0 0.0
2015-Mar-20 11:30N 34°32' E 135°21'0 0.0
2015-Mar-20 10:06N 34°32' E 135°21'0 0.0
2015-Mar-20 09:06N 34°32' E 135°21'0 0.0
2015-Mar-20 08:30N 34°32' E 135°21'0 0.0
2015-Mar-20 07:24N 34°32' E 135°21'0 0.0
2015-Mar-20 06:30N 34°32' E 135°21'0 0.1
2015-Mar-20 05:30N 34°32' E 135°21'0 0.0
2015-Mar-20 04:30N 34°32' E 135°21'0 0.0
2015-Mar-20 03:06N 34°32' E 135°21'0 0.0
2015-Mar-20 02:24N 34°32' E 135°21'0 0.0
2015-Mar-20 01:24N 34°32' E 135°21'0 0.0
2015-Mar-20 00:24N 34°32' E 135°21'0 0.3
2015-Mar-19 23:28N 34°32' E 135°21'6 6.4
2015-Mar-19 22:33N 34°29' E 135°15'1110.9
2015-Mar-19 21:34N 34°23' E 135°04'1110.6
2015-Mar-19 20:33N 34°13' E 134°59'1010.4
2015-Mar-19 19:33N 34°02' E 135°00'227 7.5
2015-Mar-18 13:25N 34°58' E 139°27'8 9.5
2015-Mar-18 12:33N 35°02' E 139°36'1111.0
2015-Mar-18 11:33N 35°10' E 139°45'1111.1
2015-Mar-18 10:34N 35°21' E 139°42'1110.8
2015-Mar-18 09:34N 35°29' E 139°51'5 0.1
2015-Mar-16 09:32N 35°32' E 139°56'9 9.6
2015-Mar-16 08:33N 35°26' E 139°48'5 4.8
2015-Mar-16 07:34N 35°22' E 139°44'0 0.0
2015-Mar-16 06:31N 35°22' E 139°44'0 0.1
2015-Mar-16 05:31N 35°22' E 139°44'0 0.0
2015-Mar-16 04:28N 35°22' E 139°44'0 0.0
2015-Mar-16 03:31N 35°22' E 139°44'0 0.0
2015-Mar-16 02:31N 35°22' E 139°44'0 0.0
2015-Mar-16 01:34N 35°22' E 139°44'0 0.0
2015-Mar-16 00:31N 35°22' E 139°44'0 0.0
2015-Mar-15 23:31N 35°22' E 139°44'0 0.0
2015-Mar-15 22:28N 35°22' E 139°44'0 0.0
2015-Mar-15 21:34N 35°22' E 139°44'0 0.0
2015-Mar-15 20:31N 35°22' E 139°44'0 0.0
2015-Mar-15 19:34N 35°22' E 139°44'0 0.1
2015-Mar-15 18:34N 35°22' E 139°44'0 0.0
2015-Mar-15 17:31N 35°22' E 139°44'  
Track history (hours):
 
Tides and Currents Weather Stations Pressure Air Temp Water Temp Dewpoint Dewpoint Depression Visibility Wind Speed Wind Dir Waves Ship Positions

Thailine 5

Last reported at 2015-Mar-25 16:33 UTC. Time now 2015-Mar-27 19:16 UTC.
Position N 33°43' E 129°57'.

Length 98 m; draft 5.1 m.

Type: Cargo ship. MMSI: 533399000.

Date/timePositionNaut miles runAvg speedWind from/ knotsBaromVisibWave heightAir tempDewpointWater temp
2015-Mar-25 16:33N 33°43' E 129°57'1211.2
2015-Mar-25 15:31N 33°48' E 130°09'1311.5
2015-Mar-25 14:22N 33°56' E 130°23'  
2015-Mar-23 09:25N 34°36' E 134°55'7 7.8
2015-Mar-23 08:33N 34°36' E 135°03'8 8.0
2015-Mar-23 07:33N 34°34' E 135°12'9 9.2
2015-Mar-23 06:33N 34°31' E 135°23'0 0.1
2015-Mar-23 05:11N 34°31' E 135°23'0 0.0
2015-Mar-23 04:23N 34°31' E 135°23'0 0.0
2015-Mar-23 03:11N 34°31' E 135°23'0 0.0
2015-Mar-23 01:23N 34°31' E 135°23'0 0.0
2015-Mar-23 00:11N 34°31' E 135°23'0 0.0
2015-Mar-22 23:23N 34°31' E 135°23'0 0.0
2015-Mar-22 22:17N 34°31' E 135°23'0 0.0
2015-Mar-22 21:23N 34°31' E 135°23'0 0.0
2015-Mar-22 20:29N 34°31' E 135°23'0 0.0
2015-Mar-22 19:23N 34°31' E 135°23'0 0.0
2015-Mar-22 18:29N 34°31' E 135°23'0 0.0
2015-Mar-22 17:29N 34°31' E 135°23'0 0.0
2015-Mar-22 16:29N 34°31' E 135°23'0 0.0
2015-Mar-22 15:29N 34°31' E 135°23'0 0.0
2015-Mar-22 14:05N 34°31' E 135°23'0 0.0
2015-Mar-22 13:23N 34°31' E 135°23'0 0.0
2015-Mar-22 12:17N 34°31' E 135°23'0 0.1
2015-Mar-22 11:29N 34°31' E 135°23'0 0.0
2015-Mar-22 10:17N 34°31' E 135°23'0 0.0
2015-Mar-22 09:29N 34°31' E 135°23'0 0.0
2015-Mar-22 06:11N 34°31' E 135°23'0 0.0
2015-Mar-22 05:11N 34°31' E 135°23'0 0.0
2015-Mar-22 04:23N 34°31' E 135°23'0 0.0
2015-Mar-22 03:29N 34°31' E 135°23'0 0.0
2015-Mar-22 02:23N 34°31' E 135°23'0 0.0
2015-Mar-22 01:23N 34°31' E 135°23'0 0.0
2015-Mar-22 00:29N 34°31' E 135°23'0 0.0
2015-Mar-21 23:29N 34°31' E 135°23'0 0.0
2015-Mar-21 22:23N 34°31' E 135°23'0 0.0
2015-Mar-21 21:17N 34°31' E 135°23'0 0.0
2015-Mar-21 20:11N 34°31' E 135°23'0 0.0
2015-Mar-21 19:29N 34°31' E 135°23'0 0.0
2015-Mar-21 18:23N 34°31' E 135°23'0 0.0
2015-Mar-21 17:05N 34°31' E 135°23'0 0.0
2015-Mar-21 16:29N 34°31' E 135°23'0 0.0
2015-Mar-21 14:17N 34°31' E 135°23'0 0.0
2015-Mar-21 13:23N 34°31' E 135°23'0 0.0
2015-Mar-21 12:23N 34°31' E 135°23'0 0.0
2015-Mar-21 11:29N 34°31' E 135°23'0 0.0
2015-Mar-21 10:23N 34°31' E 135°23'0 0.0
2015-Mar-21 09:17N 34°31' E 135°23'0 0.0
2015-Mar-21 08:29N 34°31' E 135°23'0 0.0
2015-Mar-21 07:23N 34°31' E 135°23'0 0.0
2015-Mar-21 06:11N 34°31' E 135°23'0 0.0
2015-Mar-21 04:23N 34°31' E 135°23'0 0.0
2015-Mar-21 02:23N 34°31' E 135°23'0 0.4
2015-Mar-21 01:33N 34°32' E 135°23'2 1.6
2015-Mar-21 00:24N 34°32' E 135°21'0 0.0
2015-Mar-20 23:18N 34°32' E 135°21'0 0.0
2015-Mar-20 22:18N 34°32' E 135°21'0 0.0
2015-Mar-20 21:24N 34°32' E 135°21'0 0.0
2015-Mar-20 20:06N 34°32' E 135°21'0 0.0
2015-Mar-20 18:30N 34°32' E 135°21'0 0.0
2015-Mar-20 17:06N 34°32' E 135°21'0 0.0
2015-Mar-20 16:24N 34°32' E 135°21'0 0.0
2015-Mar-20 15:30N 34°32' E 135°21'0 0.0
2015-Mar-20 14:24N 34°32' E 135°21'0 0.0
2015-Mar-20 11:30N 34°32' E 135°21'0 0.0
2015-Mar-20 10:06N 34°32' E 135°21'0 0.0
2015-Mar-20 09:06N 34°32' E 135°21'0 0.0
2015-Mar-20 08:30N 34°32' E 135°21'0 0.0
2015-Mar-20 07:24N 34°32' E 135°21'0 0.0
2015-Mar-20 06:30N 34°32' E 135°21'0 0.1
2015-Mar-20 05:30N 34°32' E 135°21'0 0.0
2015-Mar-20 04:30N 34°32' E 135°21'0 0.0
2015-Mar-20 03:06N 34°32' E 135°21'0 0.0
2015-Mar-20 02:24N 34°32' E 135°21'0 0.0
2015-Mar-20 01:24N 34°32' E 135°21'0 0.0
2015-Mar-20 00:24N 34°32' E 135°21'0 0.3
2015-Mar-19 23:28N 34°32' E 135°21'6 6.4
2015-Mar-19 22:33N 34°29' E 135°15'1110.9
2015-Mar-19 21:34N 34°23' E 135°04'1110.6
2015-Mar-19 20:33N 34°13' E 134°59'1010.4
2015-Mar-19 19:33N 34°02' E 135°00'227 7.5
2015-Mar-18 13:25N 34°58' E 139°27'8 9.5
2015-Mar-18 12:33N 35°02' E 139°36'1111.0
2015-Mar-18 11:33N 35°10' E 139°45'1111.1
2015-Mar-18 10:34N 35°21' E 139°42'1110.8
2015-Mar-18 09:34N 35°29' E 139°51'5 0.1
2015-Mar-16 09:32N 35°32' E 139°56'9 9.6
2015-Mar-16 08:33N 35°26' E 139°48'5 4.8
2015-Mar-16 07:34N 35°22' E 139°44'0 0.0
2015-Mar-16 06:31N 35°22' E 139°44'0 0.1
2015-Mar-16 05:31N 35°22' E 139°44'0 0.0
2015-Mar-16 04:28N 35°22' E 139°44'0 0.0
2015-Mar-16 03:31N 35°22' E 139°44'0 0.0
2015-Mar-16 02:31N 35°22' E 139°44'0 0.0
2015-Mar-16 01:34N 35°22' E 139°44'0 0.0
2015-Mar-16 00:31N 35°22' E 139°44'0 0.0
2015-Mar-15 23:31N 35°22' E 139°44'0 0.0
2015-Mar-15 22:28N 35°22' E 139°44'0 0.0
2015-Mar-15 21:34N 35°22' E 139°44'0 0.0
2015-Mar-15 20:31N 35°22' E 139°44'0 0.0
2015-Mar-15 19:34N 35°22' E 139°44'0 0.1
2015-Mar-15 18:34N 35°22' E 139°44'0 0.0
2015-Mar-15 17:31N 35°22' E 139°44'  

Dump ship's entire track history